createdAt,value
2023-03-29T00:00:27.083Z,5.8764
2023-03-29T00:01:35.965Z,5.8776
2023-03-29T00:02:33.708Z,5.8790
2023-03-29T00:03:36.399Z,5.8811
2023-03-29T00:05:41.232Z,5.8820
2023-03-29T00:06:43.791Z,5.8826
2023-03-29T00:08:48.593Z,5.8811
2023-03-29T00:09:51.073Z,5.8809
2023-03-29T00:10:53.616Z,5.8805
2023-03-29T00:11:56.140Z,5.8807
2023-03-29T00:14:00.996Z,5.8805
2023-03-29T00:15:03.436Z,5.8775
2023-03-29T00:16:05.999Z,5.8722
2023-03-29T00:17:08.544Z,5.8666
2023-03-29T00:18:11.206Z,5.8608
2023-03-29T00:19:13.694Z,5.8546
2023-03-29T00:20:16.241Z,5.8497
2023-03-29T00:22:21.040Z,5.8421
2023-03-29T00:23:23.528Z,5.8372
2023-03-29T00:25:28.413Z,5.8265
2023-03-29T00:26:30.861Z,5.8223
2023-03-29T00:27:33.349Z,5.8176
2023-03-29T00:28:35.901Z,5.8119
2023-03-29T00:30:40.722Z,5.7988
2023-03-29T00:31:43.211Z,5.7948
2023-03-29T00:33:48.070Z,5.7852
2023-03-29T00:34:50.593Z,5.7812
2023-03-29T00:35:53.089Z,5.7797
2023-03-29T00:36:55.605Z,5.7804
2023-03-29T00:37:58.132Z,5.7830
2023-03-29T00:39:00.615Z,5.7848
2023-03-29T00:40:03.131Z,5.7867
2023-03-29T00:42:07.921Z,5.7922
2023-03-29T00:43:10.371Z,5.7934
2023-03-29T00:45:15.234Z,5.7982
2023-03-29T00:47:20.166Z,5.8088
2023-03-29T00:48:22.624Z,5.8158
2023-03-29T00:50:27.478Z,5.8314
2023-03-29T00:51:29.967Z,5.8401
2023-03-29T00:52:32.437Z,5.8475
2023-03-29T00:53:34.914Z,5.8540
2023-03-29T00:54:37.440Z,5.8587
2023-03-29T00:55:39.948Z,5.8635
2023-03-29T00:56:42.590Z,5.8667
2023-03-29T00:58:47.398Z,5.8731
2023-03-29T00:59:49.848Z,5.8776
2023-03-29T01:00:52.435Z,5.8842
2023-03-29T01:01:55.232Z,5.8927
2023-03-29T01:02:58.264Z,5.9031
2023-03-29T01:05:03.192Z,5.9312
2023-03-29T01:06:05.752Z,5.9454
2023-03-29T01:08:10.617Z,5.9739
2023-03-29T01:09:13.153Z,5.9871
2023-03-29T01:10:15.685Z,5.9979
2023-03-29T01:11:18.188Z,6.0092
2023-03-29T01:13:23.168Z,6.0340
2023-03-29T01:14:25.670Z,6.0450
2023-03-29T01:15:28.258Z,6.0570
2023-03-29T01:16:30.812Z,6.0683
2023-03-29T01:19:38.202Z,6.1092
2023-03-29T01:21:43.128Z,6.1303
2023-03-29T01:22:45.723Z,6.1396
2023-03-29T01:24:50.587Z,6.1583
2023-03-29T01:25:53.130Z,6.1683
2023-03-29T01:26:55.636Z,6.1782
2023-03-29T01:27:58.145Z,6.1884
2023-03-29T01:29:00.690Z,6.1994
2023-03-29T01:30:03.172Z,6.2113
2023-03-29T01:31:05.734Z,6.2234
2023-03-29T01:33:10.624Z,6.2466
2023-03-29T01:34:13.189Z,6.2565
2023-03-29T01:35:15.668Z,6.2675
2023-03-29T01:36:18.274Z,6.2810
2023-03-29T01:37:20.838Z,6.2966
2023-03-29T01:38:23.404Z,6.3085
2023-03-29T01:39:25.871Z,6.3166
2023-03-29T01:41:30.752Z,6.3314
2023-03-29T01:42:33.296Z,6.3410
2023-03-29T01:43:35.900Z,6.3500
2023-03-29T01:44:38.435Z,6.3590
2023-03-29T01:45:40.892Z,6.3656
2023-03-29T01:46:43.439Z,6.3721
2023-03-29T01:47:46.060Z,6.3768
2023-03-29T01:49:50.939Z,6.3837
2023-03-29T01:50:53.547Z,6.3895
2023-03-29T01:51:56.101Z,6.3936
2023-03-29T01:52:58.640Z,6.3946
2023-03-29T01:55:03.490Z,6.3938
2023-03-29T01:56:05.959Z,6.3967
2023-03-29T01:57:08.498Z,6.3988
2023-03-29T01:58:10.953Z,6.4044
2023-03-29T01:59:13.508Z,6.4103
2023-03-29T02:00:16.066Z,6.4146
2023-03-29T02:01:18.600Z,6.4181
2023-03-29T02:02:21.169Z,6.4246
2023-03-29T02:03:23.794Z,6.4302
2023-03-29T02:04:26.406Z,6.4355
2023-03-29T02:06:31.272Z,6.4432
2023-03-29T02:08:36.087Z,6.4507
2023-03-29T02:09:38.635Z,6.4542
2023-03-29T02:10:41.113Z,6.4568
2023-03-29T02:11:43.578Z,6.4596
2023-03-29T02:12:46.166Z,6.4605
2023-03-29T02:13:48.713Z,6.4618
2023-03-29T02:14:51.200Z,6.4640
2023-03-29T02:15:53.748Z,6.4663
2023-03-29T02:17:58.619Z,6.4711
2023-03-29T02:19:01.392Z,6.4734
2023-03-29T02:20:03.846Z,6.4744
2023-03-29T02:21:06.402Z,6.4763
2023-03-29T02:22:08.891Z,6.4779
2023-03-29T02:23:11.433Z,6.4792
2023-03-29T02:25:16.278Z,6.4808
2023-03-29T02:26:18.790Z,6.4794
2023-03-29T02:27:21.332Z,6.4767
2023-03-29T02:28:23.790Z,6.4798
2023-03-29T02:29:26.336Z,6.4845
2023-03-29T02:31:31.269Z,6.4907
2023-03-29T02:33:36.089Z,6.4916
2023-03-29T02:34:38.672Z,6.4940
2023-03-29T02:36:43.552Z,6.4993
2023-03-29T02:37:46.061Z,6.5025
2023-03-29T02:38:48.563Z,6.5068
2023-03-29T02:39:51.085Z,6.5110
2023-03-29T02:41:55.934Z,6.5186
2023-03-29T02:42:58.416Z,6.5248
2023-03-29T02:44:00.990Z,6.5303
2023-03-29T02:45:03.538Z,6.5363
2023-03-29T02:47:08.390Z,6.5410
2023-03-29T02:49:13.266Z,6.5383
2023-03-29T02:50:15.796Z,6.5362
2023-03-29T02:51:20.016Z,6.5325
2023-03-29T02:52:18.413Z,6.5276
2023-03-29T02:53:21.067Z,6.5245
2023-03-29T02:54:23.565Z,6.5211
2023-03-29T02:55:26.163Z,6.5187
2023-03-29T02:56:28.680Z,6.5159
2023-03-29T02:57:31.198Z,6.5123
2023-03-29T02:58:33.753Z,6.5096
2023-03-29T02:59:36.255Z,6.5054
2023-03-29T03:00:38.836Z,6.5014
2023-03-29T03:01:41.331Z,6.4958
2023-03-29T03:03:46.374Z,6.4808
2023-03-29T03:04:48.966Z,6.4706
2023-03-29T03:06:53.851Z,6.4581
2023-03-29T03:07:56.387Z,6.4554
2023-03-29T03:08:58.905Z,6.4543
2023-03-29T03:10:01.469Z,6.4547
2023-03-29T03:11:04.226Z,6.4568
2023-03-29T03:13:09.520Z,6.4604
2023-03-29T03:14:12.022Z,6.4596
2023-03-29T03:15:14.573Z,6.4567
2023-03-29T03:16:17.070Z,6.4557
2023-03-29T03:18:21.930Z,6.4527
2023-03-29T03:19:24.468Z,6.4518
2023-03-29T03:20:27.076Z,6.4511
2023-03-29T03:21:29.596Z,6.4518
2023-03-29T03:23:34.610Z,6.4528
2023-03-29T03:24:37.114Z,6.4546
2023-03-29T03:25:39.653Z,6.4548
2023-03-29T03:26:42.138Z,6.4579
2023-03-29T03:31:54.349Z,6.4614
2023-03-29T03:32:57.156Z,6.4609
2023-03-29T03:33:59.684Z,6.4593
2023-03-29T03:35:02.237Z,6.4564
2023-03-29T03:36:04.830Z,6.4539
2023-03-29T03:37:07.336Z,6.4513
2023-03-29T03:38:09.894Z,6.4540
2023-03-29T03:39:12.394Z,6.4572
2023-03-29T03:40:14.949Z,6.4592
2023-03-29T03:41:17.415Z,6.4594
2023-03-29T03:42:19.957Z,6.4574
2023-03-29T03:43:22.610Z,6.4542
2023-03-29T03:45:27.626Z,6.4516
2023-03-29T03:47:32.661Z,6.4544
2023-03-29T03:48:35.143Z,6.4551
2023-03-29T03:49:37.641Z,6.4568
2023-03-29T03:50:40.115Z,6.4588
2023-03-29T03:51:42.642Z,6.4596
2023-03-29T03:52:45.219Z,6.4602
2023-03-29T03:53:47.706Z,6.4578
2023-03-29T03:54:50.245Z,6.4545
2023-03-29T03:55:52.852Z,6.4505
2023-03-29T03:56:55.401Z,6.4436
2023-03-29T03:57:57.959Z,6.4354
2023-03-29T03:59:00.550Z,6.4280
2023-03-29T04:00:03.141Z,6.4205
2023-03-29T04:01:05.584Z,6.4129
2023-03-29T04:02:08.138Z,6.4066
2023-03-29T04:04:13.047Z,6.3804
2023-03-29T04:05:15.493Z,6.3684
2023-03-29T04:06:18.086Z,6.3579
2023-03-29T04:07:20.592Z,6.3523
2023-03-29T04:08:23.171Z,6.3510
2023-03-29T04:10:27.982Z,6.3485
2023-03-29T04:11:30.481Z,6.3461
2023-03-29T04:12:33.033Z,6.3478
2023-03-29T04:13:35.576Z,6.3494
2023-03-29T04:15:40.398Z,6.3485
2023-03-29T04:16:42.964Z,6.3515
2023-03-29T04:18:47.829Z,6.3604
2023-03-29T04:19:50.376Z,6.3619
2023-03-29T04:20:52.947Z,6.3627
2023-03-29T04:21:55.390Z,6.3639
2023-03-29T04:22:57.887Z,6.3679
2023-03-29T04:25:02.715Z,6.3742
2023-03-29T04:26:05.266Z,6.3753
2023-03-29T04:28:10.209Z,6.3799
2023-03-29T04:29:12.724Z,6.3842
2023-03-29T04:30:15.229Z,6.3905
2023-03-29T04:31:17.782Z,6.4022
2023-03-29T04:32:20.277Z,6.4148
2023-03-29T04:33:22.776Z,6.4243
2023-03-29T04:34:25.264Z,6.4311
2023-03-29T04:35:27.739Z,6.4370
2023-03-29T04:37:32.646Z,6.4485
2023-03-29T04:38:35.153Z,6.4526
2023-03-29T04:39:37.647Z,6.4570
2023-03-29T04:40:40.141Z,6.4603
2023-03-29T04:42:44.976Z,6.4627
2023-03-29T04:43:47.509Z,6.4641
2023-03-29T04:44:50.080Z,6.4643
2023-03-29T04:45:52.656Z,6.4650
2023-03-29T04:46:55.358Z,6.4670
2023-03-29T04:47:57.912Z,6.4703
2023-03-29T04:49:00.479Z,6.4705
2023-03-29T04:50:02.964Z,6.4692
2023-03-29T04:51:05.482Z,6.4653
2023-03-29T04:52:08.014Z,6.4597
2023-03-29T04:53:10.528Z,6.4567
2023-03-29T04:54:13.088Z,6.4560
2023-03-29T04:55:15.649Z,6.4597
2023-03-29T04:56:18.091Z,6.4706
2023-03-29T04:57:20.685Z,6.4908
2023-03-29T04:59:25.508Z,6.5324
2023-03-29T05:00:28.064Z,6.5536
2023-03-29T05:01:30.587Z,6.5725
2023-03-29T05:02:33.146Z,6.5910
2023-03-29T05:03:35.766Z,6.6098
2023-03-29T05:05:40.584Z,6.6447
2023-03-29T05:06:43.170Z,6.6598
2023-03-29T05:07:45.717Z,6.6761
2023-03-29T05:08:48.172Z,6.6939
2023-03-29T05:09:50.684Z,6.7073
2023-03-29T05:10:53.173Z,6.7158
2023-03-29T05:11:55.727Z,6.7320
2023-03-29T05:14:00.509Z,6.7615
2023-03-29T05:18:10.266Z,6.7918
2023-03-29T05:19:12.810Z,6.7968
2023-03-29T05:20:15.458Z,6.8068
2023-03-29T05:22:20.300Z,6.8343
2023-03-29T05:24:25.073Z,6.8525
2023-03-29T05:25:27.865Z,6.8552
2023-03-29T05:26:30.363Z,6.8585
2023-03-29T05:27:33.021Z,6.8617
2023-03-29T05:28:35.576Z,6.8667
2023-03-29T05:29:38.112Z,6.8722
2023-03-29T05:30:40.599Z,6.8802
2023-03-29T05:31:43.173Z,6.8876
2023-03-29T05:32:45.739Z,6.8955
2023-03-29T05:33:48.188Z,6.9026
2023-03-29T05:35:53.114Z,6.9187
2023-03-29T05:36:55.571Z,6.9299
2023-03-29T05:37:58.092Z,6.9393
2023-03-29T05:40:05.825Z,6.9527
2023-03-29T05:41:04.589Z,6.9593
2023-03-29T05:43:09.596Z,6.9786
2023-03-29T05:44:12.139Z,6.9887
2023-03-29T05:45:14.677Z,6.9982
2023-03-29T05:46:17.234Z,7.0091
2023-03-29T05:47:19.944Z,7.0210
2023-03-29T05:49:24.812Z,7.0376
2023-03-29T05:50:27.330Z,7.0449
2023-03-29T05:52:32.204Z,7.0651
2023-03-29T05:53:34.684Z,7.0739
2023-03-29T05:55:39.466Z,7.0917
2023-03-29T05:56:41.995Z,7.1001
2023-03-29T05:58:46.845Z,7.1138
2023-03-29T05:59:49.283Z,7.1183
2023-03-29T06:00:51.803Z,7.1248
2023-03-29T06:01:54.383Z,7.1327
2023-03-29T06:03:03.654Z,7.1390
2023-03-29T06:05:03.156Z,7.1544
2023-03-29T06:06:05.743Z,7.1644
2023-03-29T06:07:08.192Z,7.1755
2023-03-29T06:08:10.742Z,7.1862
2023-03-29T06:09:13.263Z,7.1972
2023-03-29T06:10:15.757Z,7.2087
2023-03-29T06:11:18.302Z,7.2205
2023-03-29T06:20:39.535Z,7.3947
2023-03-29T06:22:44.328Z,7.4689
2023-03-29T06:23:46.765Z,7.5102
2023-03-29T06:24:49.410Z,7.5570
2023-03-29T06:25:51.871Z,7.6088
2023-03-29T06:27:56.795Z,7.7021
2023-03-29T06:28:59.247Z,7.7466
2023-03-29T06:30:01.744Z,7.7877
2023-03-29T06:31:04.468Z,7.8238
2023-03-29T06:32:07.596Z,7.8601
2023-03-29T06:34:12.371Z,7.9253
2023-03-29T06:35:14.855Z,7.9568
2023-03-29T06:37:19.712Z,8.0179
2023-03-29T06:38:22.148Z,8.0506
2023-03-29T06:39:24.621Z,8.0798
2023-03-29T06:40:27.078Z,8.1062
2023-03-29T06:41:29.542Z,8.1308
2023-03-29T06:42:31.961Z,8.1554
2023-03-29T06:44:36.661Z,8.2020
2023-03-29T06:46:41.516Z,8.2503
2023-03-29T06:47:43.986Z,8.2688
2023-03-29T06:48:46.427Z,8.2882
2023-03-29T06:49:48.869Z,8.3048
2023-03-29T06:50:51.369Z,8.3225
2023-03-29T06:52:56.153Z,8.3602
2023-03-29T06:53:58.586Z,8.3779
2023-03-29T06:55:01.110Z,8.3981
2023-03-29T06:56:03.559Z,8.4205
2023-03-29T06:57:06.058Z,8.4437
2023-03-29T06:58:08.514Z,8.4659
2023-03-29T06:59:10.969Z,8.4891
2023-03-29T07:00:13.444Z,8.5101
2023-03-29T07:01:16.011Z,8.5275
2023-03-29T07:02:18.486Z,8.5482
2023-03-29T07:04:23.270Z,8.5912
2023-03-29T07:05:25.726Z,8.6179
2023-03-29T07:06:28.164Z,8.6438
2023-03-29T07:07:30.617Z,8.6707
2023-03-29T07:08:33.050Z,8.6984
2023-03-29T07:09:35.559Z,8.7243
2023-03-29T07:10:38.031Z,8.7496
2023-03-29T07:12:42.770Z,8.7838
2023-03-29T07:13:45.193Z,8.7931
2023-03-29T07:14:47.647Z,8.7997
2023-03-29T07:15:50.105Z,8.8071
2023-03-29T07:17:54.895Z,8.8236
2023-03-29T07:18:57.338Z,8.8309
2023-03-29T07:19:58.420Z,8.8372
2023-03-29T07:22:03.161Z,8.8562
2023-03-29T07:23:05.571Z,8.8808
2023-03-29T07:24:08.063Z,8.9090
2023-03-29T07:25:10.540Z,8.9443
2023-03-29T07:26:13.026Z,8.9876
2023-03-29T07:27:15.413Z,9.0370
2023-03-29T07:28:17.879Z,9.0807
2023-03-29T07:29:20.359Z,9.1179
2023-03-29T07:30:22.821Z,9.1495
2023-03-29T07:31:25.278Z,9.1785
2023-03-29T07:32:27.825Z,9.2100
2023-03-29T07:34:32.656Z,9.2539
2023-03-29T07:35:35.193Z,9.2706
2023-03-29T07:37:39.922Z,9.3023
2023-03-29T07:38:42.330Z,9.3229
2023-03-29T07:39:44.773Z,9.3444
2023-03-29T07:40:47.233Z,9.3692
2023-03-29T07:42:52.635Z,9.4135
2023-03-29T07:43:55.039Z,9.4353
2023-03-29T07:44:57.477Z,9.4560
2023-03-29T07:45:59.950Z,9.4721
2023-03-29T07:47:02.352Z,9.4902
2023-03-29T07:48:04.932Z,9.5126
2023-03-29T07:49:07.352Z,9.5421
2023-03-29T07:50:09.795Z,9.5723
2023-03-29T07:51:12.206Z,9.5999
2023-03-29T07:52:14.627Z,9.6354
2023-03-29T07:53:17.055Z,9.6736
2023-03-29T07:54:19.538Z,9.7102
2023-03-29T07:55:22.035Z,9.7504
2023-03-29T07:56:24.458Z,9.7930
2023-03-29T07:57:27.219Z,9.8325
2023-03-29T07:59:32.063Z,9.9068
2023-03-29T08:00:34.555Z,9.9498
2023-03-29T08:02:39.170Z,10.0338
2023-03-29T08:03:41.654Z,10.0726
2023-03-29T08:05:46.369Z,10.1561
2023-03-29T08:06:48.774Z,10.1985
2023-03-29T08:07:51.236Z,10.2382
2023-03-29T08:08:53.633Z,10.2841
2023-03-29T08:09:56.031Z,10.3258
2023-03-29T08:10:58.476Z,10.3568
2023-03-29T08:12:00.914Z,10.3853
2023-03-29T08:13:03.330Z,10.4106
2023-03-29T08:14:05.774Z,10.4278
2023-03-29T08:16:10.442Z,10.4464
2023-03-29T08:17:12.941Z,10.4505
2023-03-29T08:19:17.711Z,10.4486
2023-03-29T08:20:20.173Z,10.4498
2023-03-29T08:22:24.843Z,10.4669
2023-03-29T08:24:29.545Z,10.5029
2023-03-29T08:25:32.044Z,10.5209
2023-03-29T08:26:34.431Z,10.5395
2023-03-29T08:27:36.902Z,10.5493
2023-03-29T08:29:41.824Z,10.5584
2023-03-29T08:31:46.526Z,10.5777
2023-03-29T08:32:51.078Z,10.6053
2023-03-29T08:33:51.082Z,10.6433
2023-03-29T08:35:55.825Z,10.7350
2023-03-29T08:38:00.507Z,10.8318
2023-03-29T08:39:02.979Z,10.8785
2023-03-29T08:40:05.372Z,10.9296
2023-03-29T08:41:07.839Z,10.9846
2023-03-29T08:42:10.218Z,11.0391
2023-03-29T08:43:12.676Z,11.1030
2023-03-29T08:44:15.056Z,11.1767
2023-03-29T08:46:19.802Z,11.3439
2023-03-29T08:47:22.247Z,11.4287
2023-03-29T08:49:26.931Z,11.6000
2023-03-29T08:51:31.524Z,11.7453
2023-03-29T08:52:33.993Z,11.8158
2023-03-29T08:53:36.391Z,11.8803
2023-03-29T08:54:38.900Z,11.9491
2023-03-29T08:55:41.386Z,12.0249
2023-03-29T08:57:46.019Z,12.1782
2023-03-29T08:58:48.384Z,12.2511
2023-03-29T08:59:50.810Z,12.3235
2023-03-29T09:00:53.233Z,12.3987
2023-03-29T09:02:58.313Z,12.5323
2023-03-29T09:04:00.902Z,12.6007
2023-03-29T09:06:05.568Z,12.7099
2023-03-29T09:08:10.351Z,12.8018
2023-03-29T09:09:12.776Z,12.8524
2023-03-29T09:11:17.529Z,12.9654
2023-03-29T09:12:19.989Z,13.0192
2023-03-29T09:13:22.387Z,13.0693
2023-03-29T09:14:24.835Z,13.1124
2023-03-29T09:15:27.260Z,13.1477
2023-03-29T09:16:29.763Z,13.1842
2023-03-29T09:17:32.218Z,13.2176
2023-03-29T09:18:34.688Z,13.2450
2023-03-29T09:19:37.072Z,13.2658
2023-03-29T09:20:39.537Z,13.2892
2023-03-29T09:21:41.986Z,13.3121
2023-03-29T09:22:44.376Z,13.3317
2023-03-29T09:24:49.110Z,13.3747
2023-03-29T09:25:54.202Z,13.3947
2023-03-29T09:26:52.221Z,13.4053
2023-03-29T09:27:54.675Z,13.3997
2023-03-29T09:28:57.173Z,13.3869
2023-03-29T09:29:59.560Z,13.3827
2023-03-29T09:31:02.270Z,13.3691
2023-03-29T09:32:04.868Z,13.3503
2023-03-29T09:33:07.363Z,13.3237
2023-03-29T09:34:09.781Z,13.2967
2023-03-29T09:36:14.604Z,13.2179
2023-03-29T09:37:17.004Z,13.1631
2023-03-29T09:38:19.516Z,13.1073
2023-03-29T09:39:21.942Z,13.0485
2023-03-29T09:41:26.646Z,12.9368
2023-03-29T09:42:29.073Z,12.8913
2023-03-29T09:43:31.536Z,12.8512
2023-03-29T09:44:33.936Z,12.8135
2023-03-29T09:46:38.651Z,12.7471
2023-03-29T09:47:41.141Z,12.7211
2023-03-29T09:48:43.597Z,12.7035
2023-03-29T09:49:46.102Z,12.6885
2023-03-29T09:50:48.530Z,12.6809
2023-03-29T09:52:53.268Z,12.7013
2023-03-29T09:53:55.752Z,12.7295
2023-03-29T09:56:00.533Z,12.8149
2023-03-29T09:57:03.058Z,12.8618
2023-03-29T09:58:05.468Z,12.9079
2023-03-29T09:59:07.918Z,12.9625
2023-03-29T10:00:10.352Z,13.0234
2023-03-29T10:01:12.856Z,13.0931
2023-03-29T10:03:17.504Z,13.2517
2023-03-29T10:04:19.981Z,13.3353
2023-03-29T10:06:24.638Z,13.5076
2023-03-29T10:07:27.082Z,13.5908
2023-03-29T10:08:29.483Z,13.6772
2023-03-29T10:09:32.074Z,13.7667
2023-03-29T10:10:34.481Z,13.8669
2023-03-29T10:11:37.022Z,13.9744
2023-03-29T10:12:39.454Z,14.0976
2023-03-29T10:13:41.834Z,14.2245
2023-03-29T10:15:46.494Z,14.4624
2023-03-29T10:16:49.013Z,14.5882
2023-03-29T10:18:53.638Z,14.8182
2023-03-29T10:19:56.061Z,14.9089
2023-03-29T10:20:58.461Z,15.0112
2023-03-29T10:22:00.867Z,15.1401
2023-03-29T10:23:03.307Z,15.3041
2023-03-29T10:24:05.681Z,15.4663
2023-03-29T10:25:08.087Z,15.6195
2023-03-29T10:27:12.740Z,15.8293
2023-03-29T10:28:15.119Z,15.8891
2023-03-29T10:29:17.554Z,15.9336
2023-03-29T10:30:19.945Z,15.9879
2023-03-29T10:31:22.378Z,16.0530
2023-03-29T10:32:24.857Z,16.1372
2023-03-29T10:33:27.197Z,16.2284
2023-03-29T10:34:29.670Z,16.3243
2023-03-29T10:35:32.112Z,16.4499
2023-03-29T10:36:34.510Z,16.5935
2023-03-29T10:37:36.864Z,16.7663
2023-03-29T10:39:41.486Z,17.1960
2023-03-29T10:40:43.801Z,17.3932
2023-03-29T10:41:46.187Z,17.6395
2023-03-29T10:42:48.527Z,17.9399
2023-03-29T10:43:51.149Z,18.2084
2023-03-29T10:44:54.337Z,18.3681
2023-03-29T16:02:32.911Z,15.6179
2023-03-29T16:03:33.139Z,15.5595
2023-03-29T16:04:33.414Z,15.5082
2023-03-29T16:05:33.618Z,15.4595
2023-03-29T16:06:33.795Z,15.4103
2023-03-29T16:07:34.047Z,15.3630
2023-03-29T16:08:34.275Z,15.3089
2023-03-29T16:09:34.445Z,15.2563
2023-03-29T16:10:34.653Z,15.2126
2023-03-29T16:11:34.854Z,15.1743
2023-03-29T16:12:35.045Z,15.1431
2023-03-29T16:13:35.271Z,15.1170
2023-03-29T16:14:35.404Z,15.0990
2023-03-29T16:15:35.650Z,15.0857
2023-03-29T16:16:36.987Z,15.0682
2023-03-29T16:17:37.248Z,15.0483
2023-03-29T16:18:37.463Z,15.0278
2023-03-29T16:19:37.749Z,15.0080
2023-03-29T16:21:37.987Z,14.9777
2023-03-29T16:22:38.239Z,14.9605
2023-03-29T16:23:38.442Z,14.9411
2023-03-29T16:24:38.638Z,14.9216
2023-03-29T16:25:38.852Z,14.9033
2023-03-29T16:26:39.124Z,14.8843
2023-03-29T16:27:39.288Z,14.8622
2023-03-29T16:28:39.498Z,14.8368
2023-03-29T16:29:39.700Z,14.8104
2023-03-29T16:30:39.906Z,14.7795
2023-03-29T16:31:40.331Z,14.7441
2023-03-29T16:32:40.750Z,14.7032
2023-03-29T16:33:41.003Z,14.6555
2023-03-29T16:34:41.514Z,14.6108
2023-03-29T16:35:42.016Z,14.5603
2023-03-29T16:36:42.170Z,14.5069
2023-03-29T16:37:42.391Z,14.4509
2023-03-29T16:38:42.585Z,14.3971
2023-03-29T16:39:42.825Z,14.3386
2023-03-29T16:40:43.005Z,14.2793
2023-03-29T16:41:43.198Z,14.2194
2023-03-29T16:42:43.419Z,14.1517
2023-03-29T16:43:43.615Z,14.0805
2023-03-29T16:44:43.847Z,14.0044
2023-03-29T16:45:44.026Z,13.9383
2023-03-29T16:46:44.234Z,13.8771
2023-03-29T16:47:44.567Z,13.8135
2023-03-29T16:48:44.857Z,13.7573
2023-03-29T16:49:45.953Z,13.6976
2023-03-29T16:50:46.228Z,13.6372
2023-03-29T16:51:46.451Z,13.5783
2023-03-29T16:52:46.702Z,13.5188
2023-03-29T16:53:46.915Z,13.4611
2023-03-29T16:54:47.133Z,13.4083
2023-03-29T16:55:47.352Z,13.3484
2023-03-29T16:56:47.593Z,13.2951
2023-03-29T16:57:47.757Z,13.2416
2023-03-29T16:58:48.022Z,13.1862
2023-03-29T16:59:48.288Z,13.1350
2023-03-29T17:00:48.697Z,13.0839
2023-03-29T17:01:48.926Z,13.0309
2023-03-29T17:02:49.229Z,12.9828
2023-03-29T17:03:49.532Z,12.9365
2023-03-29T17:04:49.931Z,12.8944
2023-03-29T17:05:50.258Z,12.8531
2023-03-29T17:06:50.694Z,12.8122
2023-03-29T17:07:50.899Z,12.7731
2023-03-29T17:08:51.136Z,12.7282
2023-03-29T17:09:51.371Z,12.6846
2023-03-29T17:10:51.596Z,12.6438
2023-03-29T17:11:52.819Z,12.6038
2023-03-29T17:12:53.164Z,12.5626
2023-03-29T17:13:53.499Z,12.5199
2023-03-29T17:14:53.825Z,12.4831
2023-03-29T17:15:54.109Z,12.4466
2023-03-29T17:16:54.339Z,12.4074
2023-03-29T17:17:54.591Z,12.3664
2023-03-29T17:18:54.837Z,12.3242
2023-03-29T17:19:55.192Z,12.2819
2023-03-29T17:20:55.460Z,12.2385
2023-03-29T17:21:55.667Z,12.1931
2023-03-29T17:22:55.973Z,12.1502
2023-03-29T17:23:56.240Z,12.1034
2023-03-29T17:24:56.573Z,12.0548
2023-03-29T17:25:56.778Z,12.0099
2023-03-29T17:26:57.048Z,11.9621
2023-03-29T17:27:57.293Z,11.9074
2023-03-29T17:28:57.503Z,11.8525
2023-03-29T17:30:57.889Z,11.7477
2023-03-29T17:31:58.082Z,11.6981
2023-03-29T17:32:58.299Z,11.6501
2023-03-29T17:33:58.565Z,11.6033
2023-03-29T17:34:58.792Z,11.5561
2023-03-29T17:35:59.288Z,11.5108
2023-03-29T17:36:59.743Z,11.4642
2023-03-29T17:37:59.957Z,11.4116
2023-03-29T17:39:02.364Z,11.3656
2023-03-29T17:40:00.616Z,11.3253
2023-03-29T17:41:00.930Z,11.2899
2023-03-29T17:42:01.168Z,11.2530
2023-03-29T17:43:01.592Z,11.2182
2023-03-29T17:44:01.964Z,11.1868
2023-03-29T17:45:02.205Z,11.1573
2023-03-29T17:46:02.611Z,11.1296
2023-03-29T17:47:03.361Z,11.1023
2023-03-29T17:48:06.246Z,11.0761
2023-03-29T17:49:04.656Z,11.0493
2023-03-29T17:50:05.272Z,11.0261
2023-03-29T17:51:05.625Z,11.0002
2023-03-29T17:52:05.834Z,10.9772
2023-03-29T17:53:06.179Z,10.9538
2023-03-29T17:54:06.480Z,10.9320
2023-03-29T17:55:06.664Z,10.9089
2023-03-29T17:56:06.942Z,10.8892
2023-03-29T17:57:07.171Z,10.8734
2023-03-29T17:58:07.406Z,10.8594
2023-03-29T17:59:07.642Z,10.8447
2023-03-29T18:00:07.938Z,10.8266
2023-03-29T18:01:08.519Z,10.7975
2023-03-29T18:02:08.841Z,10.7676
2023-03-29T18:03:09.071Z,10.7411
2023-03-29T18:04:09.476Z,10.7149
2023-03-29T18:05:09.700Z,10.6904
2023-03-29T18:06:09.916Z,10.6652
2023-03-29T18:07:10.093Z,10.6433
2023-03-29T18:08:10.328Z,10.6257
2023-03-29T18:09:10.520Z,10.6097
2023-03-29T18:10:10.951Z,10.5983
2023-03-29T18:11:11.231Z,10.5914
2023-03-29T18:12:11.481Z,10.5845
2023-03-29T18:13:11.832Z,10.5822
2023-03-29T18:14:12.053Z,10.5802
2023-03-29T18:15:12.251Z,10.5798
2023-03-29T18:16:12.487Z,10.5767
2023-03-29T18:17:12.734Z,10.5745
2023-03-29T18:18:12.910Z,10.5735
2023-03-29T18:19:13.182Z,10.5708
2023-03-29T18:20:13.428Z,10.5705
2023-03-29T18:21:13.715Z,10.5688
2023-03-29T18:22:14.555Z,10.5669
2023-03-29T18:23:15.074Z,10.5687
2023-03-29T18:24:15.478Z,10.5705
2023-03-29T18:25:15.795Z,10.5761
2023-03-29T18:26:16.272Z,10.5837
2023-03-29T18:27:16.536Z,10.5923
2023-03-29T18:28:16.729Z,10.5969
2023-03-29T18:29:17.014Z,10.5982
2023-03-29T18:30:17.292Z,10.5976
2023-03-29T18:31:17.739Z,10.5951
2023-03-29T18:32:18.047Z,10.5942
2023-03-29T18:33:18.328Z,10.5989
2023-03-29T18:34:18.541Z,10.6075
2023-03-29T18:35:18.818Z,10.6159
2023-03-29T18:36:19.074Z,10.6242
2023-03-29T18:37:19.643Z,10.6328
2023-03-29T18:38:19.933Z,10.6377
2023-03-29T18:39:20.171Z,10.6400
2023-03-29T18:40:20.373Z,10.6423
2023-03-29T18:41:20.666Z,10.6439
2023-03-29T18:43:21.011Z,10.6426
2023-03-29T18:44:21.224Z,10.6423
2023-03-29T18:45:21.650Z,10.6429
2023-03-29T18:46:22.110Z,10.6426
2023-03-29T18:47:22.462Z,10.6399
2023-03-29T18:48:22.859Z,10.6342
2023-03-29T18:49:23.072Z,10.6264
2023-03-29T18:50:23.297Z,10.6150
2023-03-29T18:51:23.493Z,10.6006
2023-03-29T18:53:23.794Z,10.5700
2023-03-29T18:54:24.114Z,10.5553
2023-03-29T18:55:24.364Z,10.5383
2023-03-29T18:56:24.595Z,10.5225
2023-03-29T18:57:24.962Z,10.5055
2023-03-29T18:58:25.193Z,10.4888
2023-03-29T18:59:25.458Z,10.4874
2023-03-29T19:00:25.723Z,10.4892
2023-03-29T19:01:25.972Z,10.4848
2023-03-29T19:02:26.263Z,10.4775
2023-03-29T19:03:26.607Z,10.4755
2023-03-29T19:04:27.025Z,10.4764
2023-03-29T19:05:27.340Z,10.4772
2023-03-29T19:06:27.561Z,10.4759
2023-03-29T19:07:27.874Z,10.4708
2023-03-29T19:08:28.229Z,10.4670
2023-03-29T19:09:28.507Z,10.4629
2023-03-29T19:10:28.813Z,10.4572
2023-03-29T19:11:29.176Z,10.4519
2023-03-29T19:12:29.487Z,10.4483
2023-03-29T19:13:29.764Z,10.4422
2023-03-29T19:14:30.078Z,10.4348
2023-03-29T19:15:30.437Z,10.4284
2023-03-29T19:16:30.755Z,10.4221
2023-03-29T19:17:31.074Z,10.4161
2023-03-29T19:18:31.390Z,10.4079
2023-03-29T19:19:31.663Z,10.4002
2023-03-29T19:20:31.922Z,10.3924
2023-03-29T19:21:32.307Z,10.3829
2023-03-29T19:23:32.748Z,10.3580
2023-03-29T19:24:32.977Z,10.3445
2023-03-29T19:25:33.265Z,10.3307
2023-03-29T19:26:33.614Z,10.3162
2023-03-29T19:27:33.885Z,10.3016
2023-03-29T19:28:34.148Z,10.2861
2023-03-29T19:29:34.410Z,10.2704
2023-03-29T19:30:34.697Z,10.2554
2023-03-29T19:31:35.078Z,10.2427
2023-03-29T19:32:35.340Z,10.2317
2023-03-29T19:33:35.612Z,10.2230
2023-03-29T19:34:35.915Z,10.2170
2023-03-29T19:35:36.343Z,10.2123
2023-03-29T19:36:36.589Z,10.2103
2023-03-29T19:37:36.921Z,10.2093
2023-03-29T19:38:37.162Z,10.2106
2023-03-29T19:39:37.459Z,10.2123
2023-03-29T19:40:37.774Z,10.2116
2023-03-29T19:41:39.441Z,10.2106
2023-03-29T19:42:38.526Z,10.2081
2023-03-29T19:43:38.866Z,10.2069
2023-03-29T19:44:39.158Z,10.2011
2023-03-29T19:45:39.432Z,10.1943
2023-03-29T19:46:39.737Z,10.1856
2023-03-29T19:47:40.114Z,10.1742
2023-03-29T19:48:40.454Z,10.1625
2023-03-29T19:49:40.799Z,10.1493
2023-03-29T19:50:41.195Z,10.1358
2023-03-29T19:51:41.520Z,10.1234
2023-03-29T19:52:41.754Z,10.1067
2023-03-29T19:53:42.056Z,10.0895
2023-03-29T19:54:42.357Z,10.0749
2023-03-29T19:55:42.652Z,10.0614
2023-03-29T19:56:43.023Z,10.0478
2023-03-29T19:57:43.393Z,10.0336
2023-03-29T19:58:43.678Z,10.0214
2023-03-29T19:59:44.025Z,10.0098
2023-03-29T20:00:44.285Z,9.9994
2023-03-29T20:01:44.584Z,9.9915
2023-03-29T20:02:44.901Z,9.9830
2023-03-29T20:03:45.326Z,9.9735
2023-03-29T20:04:45.698Z,9.9649
2023-03-29T20:05:46.047Z,9.9568
2023-03-29T20:06:46.400Z,9.9481